sensor_id;sensor_type;location;lat;lon;timestamp;temperature;humidity
43346;DHT22;28937;51.160;4.146;2023-05-16T00:00:14;13.80;95.40
43346;DHT22;28937;51.160;4.146;2023-05-16T00:02:40;13.80;95.30
43346;DHT22;28937;51.160;4.146;2023-05-16T00:05:06;13.80;95.20
43346;DHT22;28937;51.160;4.146;2023-05-16T00:07:33;13.70;95.40
43346;DHT22;28937;51.160;4.146;2023-05-16T00:09:59;13.70;95.50
43346;DHT22;28937;51.160;4.146;2023-05-16T00:12:25;13.70;95.60
43346;DHT22;28937;51.160;4.146;2023-05-16T00:14:52;13.60;95.60
43346;DHT22;28937;51.160;4.146;2023-05-16T00:17:18;13.60;95.90
43346;DHT22;28937;51.160;4.146;2023-05-16T00:19:45;13.60;95.80
43346;DHT22;28937;51.160;4.146;2023-05-16T00:22:14;13.60;95.70
43346;DHT22;28937;51.160;4.146;2023-05-16T00:24:41;13.60;95.60
43346;DHT22;28937;51.160;4.146;2023-05-16T00:27:06;13.50;95.90
43346;DHT22;28937;51.160;4.146;2023-05-16T00:29:33;13.50;95.80
43346;DHT22;28937;51.160;4.146;2023-05-16T00:31:59;13.50;95.70
43346;DHT22;28937;51.160;4.146;2023-05-16T00:34:25;13.50;95.70
43346;DHT22;28937;51.160;4.146;2023-05-16T00:36:50;13.50;95.80
43346;DHT22;28937;51.160;4.146;2023-05-16T00:39:16;13.50;95.60
43346;DHT22;28937;51.160;4.146;2023-05-16T00:41:43;13.40;95.80
43346;DHT22;28937;51.160;4.146;2023-05-16T00:44:08;13.40;95.90
43346;DHT22;28937;51.160;4.146;2023-05-16T00:46:34;13.40;95.90
43346;DHT22;28937;51.160;4.146;2023-05-16T00:49:00;13.30;95.80
43346;DHT22;28937;51.160;4.146;2023-05-16T00:51:26;13.40;95.80
43346;DHT22;28937;51.160;4.146;2023-05-16T00:53:52;13.30;95.70
43346;DHT22;28937;51.160;4.146;2023-05-16T00:56:20;13.30;95.90
43346;DHT22;28937;51.160;4.146;2023-05-16T00:58:46;13.20;96.20
43346;DHT22;28937;51.160;4.146;2023-05-16T01:01:12;13.20;96.00
43346;DHT22;28937;51.160;4.146;2023-05-16T01:03:38;13.20;96.10
43346;DHT22;28937;51.160;4.146;2023-05-16T01:06:05;13.20;96.00
43346;DHT22;28937;51.160;4.146;2023-05-16T01:08:31;13.10;96.10
43346;DHT22;28937;51.160;4.146;2023-05-16T01:17:06;13.10;96.40
43346;DHT22;28937;51.160;4.146;2023-05-16T01:25:13;13.10;96.50
43346;DHT22;28937;51.160;4.146;2023-05-16T01:27:41;13.10;96.40
43346;DHT22;28937;51.160;4.146;2023-05-16T01:30:16;13.00;96.50
43346;DHT22;28937;51.160;4.146;2023-05-16T01:32:42;13.00;96.50
43346;DHT22;28937;51.160;4.146;2023-05-16T01:35:09;13.00;96.50
43346;DHT22;28937;51.160;4.146;2023-05-16T01:37:40;13.00;96.50
43346;DHT22;28937;51.160;4.146;2023-05-16T01:41:07;12.90;96.60
43346;DHT22;28937;51.160;4.146;2023-05-16T01:43:12;13.00;96.50
43346;DHT22;28937;51.160;4.146;2023-05-16T01:45:42;12.90;96.60
43346;DHT22;28937;51.160;4.146;2023-05-16T01:48:21;12.90;96.60
43346;DHT22;28937;51.160;4.146;2023-05-16T01:50:53;12.90;96.50
43346;DHT22;28937;51.160;4.146;2023-05-16T01:53:24;12.90;96.70
43346;DHT22;28937;51.160;4.146;2023-05-16T01:55:51;12.90;96.60
43346;DHT22;28937;51.160;4.146;2023-05-16T01:58:21;12.90;96.60
43346;DHT22;28937;51.160;4.146;2023-05-16T02:00:47;12.80;96.50
43346;DHT22;28937;51.160;4.146;2023-05-16T02:03:13;12.80;96.60
43346;DHT22;28937;51.160;4.146;2023-05-16T02:05:39;12.80;96.70
43346;DHT22;28937;51.160;4.146;2023-05-16T02:08:05;12.80;96.70
43346;DHT22;28937;51.160;4.146;2023-05-16T02:10:31;12.80;96.70
43346;DHT22;28937;51.160;4.146;2023-05-16T02:12:57;12.80;96.70
43346;DHT22;28937;51.160;4.146;2023-05-16T02:15:22;12.80;96.80
43346;DHT22;28937;51.160;4.146;2023-05-16T02:17:48;12.70;96.80
43346;DHT22;28937;51.160;4.146;2023-05-16T02:20:14;12.70;96.80
43346;DHT22;28937;51.160;4.146;2023-05-16T02:22:39;12.70;96.80
43346;DHT22;28937;51.160;4.146;2023-05-16T02:25:07;12.70;97.00
43346;DHT22;28937;51.160;4.146;2023-05-16T02:27:33;12.70;96.90
43346;DHT22;28937;51.160;4.146;2023-05-16T02:29:59;12.60;96.90
43346;DHT22;28937;51.160;4.146;2023-05-16T02:32:24;12.60;97.00
43346;DHT22;28937;51.160;4.146;2023-05-16T02:34:50;12.60;96.90
43346;DHT22;28937;51.160;4.146;2023-05-16T02:37:16;12.60;97.00
43346;DHT22;28937;51.160;4.146;2023-05-16T02:39:41;12.60;97.00
43346;DHT22;28937;51.160;4.146;2023-05-16T02:42:07;12.60;97.00
43346;DHT22;28937;51.160;4.146;2023-05-16T02:44:32;12.60;97.10
43346;DHT22;28937;51.160;4.146;2023-05-16T02:46:58;12.60;97.00
43346;DHT22;28937;51.160;4.146;2023-05-16T02:49:24;12.50;97.00
43346;DHT22;28937;51.160;4.146;2023-05-16T02:51:50;12.50;97.10
43346;DHT22;28937;51.160;4.146;2023-05-16T02:54:16;12.50;97.20
43346;DHT22;28937;51.160;4.146;2023-05-16T02:56:42;12.50;97.00
43346;DHT22;28937;51.160;4.146;2023-05-16T02:59:09;12.40;97.10
43346;DHT22;28937;51.160;4.146;2023-05-16T03:01:35;12.50;97.10
43346;DHT22;28937;51.160;4.146;2023-05-16T03:04:00;12.50;97.10
43346;DHT22;28937;51.160;4.146;2023-05-16T03:06:26;12.50;97.20
43346;DHT22;28937;51.160;4.146;2023-05-16T03:08:51;12.40;97.10
43346;DHT22;28937;51.160;4.146;2023-05-16T03:11:17;12.40;97.10
43346;DHT22;28937;51.160;4.146;2023-05-16T03:13:47;12.40;97.20
43346;DHT22;28937;51.160;4.146;2023-05-16T03:16:13;12.40;97.20
43346;DHT22;28937;51.160;4.146;2023-05-16T03:18:39;12.40;97.30
43346;DHT22;28937;51.160;4.146;2023-05-16T03:21:05;12.30;97.20
43346;DHT22;28937;51.160;4.146;2023-05-16T03:23:31;12.30;97.20
43346;DHT22;28937;51.160;4.146;2023-05-16T03:25:57;12.30;97.20
43346;DHT22;28937;51.160;4.146;2023-05-16T03:28:23;12.30;97.20
43346;DHT22;28937;51.160;4.146;2023-05-16T03:30:48;12.20;97.30
43346;DHT22;28937;51.160;4.146;2023-05-16T03:33:14;12.30;97.40
43346;DHT22;28937;51.160;4.146;2023-05-16T03:35:41;12.20;97.30
43346;DHT22;28937;51.160;4.146;2023-05-16T03:38:07;12.20;97.30
43346;DHT22;28937;51.160;4.146;2023-05-16T03:40:33;12.20;97.30
43346;DHT22;28937;51.160;4.146;2023-05-16T03:42:58;12.20;97.40
43346;DHT22;28937;51.160;4.146;2023-05-16T03:45:24;12.20;97.50
43346;DHT22;28937;51.160;4.146;2023-05-16T03:47:50;12.20;97.50
43346;DHT22;28937;51.160;4.146;2023-05-16T03:50:15;12.20;97.60
43346;DHT22;28937;51.160;4.146;2023-05-16T03:52:41;12.20;97.50
43346;DHT22;28937;51.160;4.146;2023-05-16T03:55:07;12.20;97.60
43346;DHT22;28937;51.160;4.146;2023-05-16T03:57:34;12.10;97.60
43346;DHT22;28937;51.160;4.146;2023-05-16T04:00:00;12.10;97.60
43346;DHT22;28937;51.160;4.146;2023-05-16T04:02:26;12.10;97.60
43346;DHT22;28937;51.160;4.146;2023-05-16T04:04:51;12.10;97.60
43346;DHT22;28937;51.160;4.146;2023-05-16T04:07:17;12.10;97.70
43346;DHT22;28937;51.160;4.146;2023-05-16T04:09:42;12.10;97.60
43346;DHT22;28937;51.160;4.146;2023-05-16T04:12:08;12.10;97.70
43346;DHT22;28937;51.160;4.146;2023-05-16T04:14:34;12.40;94.40
43346;DHT22;28937;51.160;4.146;2023-05-16T04:17:00;12.60;93.80
43346;DHT22;28937;51.160;4.146;2023-05-16T04:19:26;12.60;93.80
43346;DHT22;28937;51.160;4.146;2023-05-16T04:21:51;12.70;93.50
43346;DHT22;28937;51.160;4.146;2023-05-16T04:24:17;12.70;93.70
43346;DHT22;28937;51.160;4.146;2023-05-16T04:26:43;12.70;93.90
43346;DHT22;28937;51.160;4.146;2023-05-16T04:29:08;12.70;94.00
43346;DHT22;28937;51.160;4.146;2023-05-16T04:31:34;12.70;94.10
43346;DHT22;28937;51.160;4.146;2023-05-16T04:34:01;12.70;94.30
43346;DHT22;28937;51.160;4.146;2023-05-16T04:36:27;12.70;94.50
43346;DHT22;28937;51.160;4.146;2023-05-16T04:38:55;12.70;94.30
43346;DHT22;28937;51.160;4.146;2023-05-16T04:41:20;12.70;94.70
43346;DHT22;28937;51.160;4.146;2023-05-16T04:43:47;12.70;94.70
43346;DHT22;28937;51.160;4.146;2023-05-16T04:46:13;12.70;94.80
43346;DHT22;28937;51.160;4.146;2023-05-16T04:48:40;12.70;94.90
43346;DHT22;28937;51.160;4.146;2023-05-16T04:51:05;12.70;94.90
43346;DHT22;28937;51.160;4.146;2023-05-16T04:53:31;12.70;95.10
43346;DHT22;28937;51.160;4.146;2023-05-16T04:55:57;12.70;95.00
43346;DHT22;28937;51.160;4.146;2023-05-16T04:58:23;12.70;95.10
43346;DHT22;28937;51.160;4.146;2023-05-16T05:00:50;12.60;95.40
43346;DHT22;28937;51.160;4.146;2023-05-16T05:03:16;12.70;95.50
43346;DHT22;28937;51.160;4.146;2023-05-16T05:05:42;12.70;95.60
43346;DHT22;28937;51.160;4.146;2023-05-16T05:08:08;12.70;95.70
43346;DHT22;28937;51.160;4.146;2023-05-16T05:10:34;12.70;95.40
43346;DHT22;28937;51.160;4.146;2023-05-16T05:13:00;12.70;95.90
43346;DHT22;28937;51.160;4.146;2023-05-16T05:15:25;12.70;95.60
43346;DHT22;28937;51.160;4.146;2023-05-16T05:17:51;12.70;95.60
43346;DHT22;28937;51.160;4.146;2023-05-16T05:20:17;12.70;95.70
43346;DHT22;28937;51.160;4.146;2023-05-16T05:22:42;12.70;95.80
43346;DHT22;28937;51.160;4.146;2023-05-16T05:25:08;12.70;95.90
43346;DHT22;28937;51.160;4.146;2023-05-16T05:27:34;12.70;95.80
43346;DHT22;28937;51.160;4.146;2023-05-16T05:30:00;12.70;95.90
43346;DHT22;28937;51.160;4.146;2023-05-16T05:32:26;12.70;95.90
43346;DHT22;28937;51.160;4.146;2023-05-16T05:34:51;12.80;95.70
43346;DHT22;28937;51.160;4.146;2023-05-16T05:37:17;12.80;96.10
43346;DHT22;28937;51.160;4.146;2023-05-16T05:39:43;12.70;96.60
43346;DHT22;28937;51.160;4.146;2023-05-16T05:42:09;12.70;96.60
43346;DHT22;28937;51.160;4.146;2023-05-16T05:44:36;12.70;96.80
43346;DHT22;28937;51.160;4.146;2023-05-16T05:47:03;12.70;96.90
43346;DHT22;28937;51.160;4.146;2023-05-16T05:49:28;12.80;96.80
43346;DHT22;28937;51.160;4.146;2023-05-16T05:51:54;12.80;96.90
43346;DHT22;28937;51.160;4.146;2023-05-16T05:54:20;12.90;97.00
43346;DHT22;28937;51.160;4.146;2023-05-16T05:56:46;12.90;96.90
43346;DHT22;28937;51.160;4.146;2023-05-16T05:59:11;13.00;97.00
43346;DHT22;28937;51.160;4.146;2023-05-16T06:01:37;13.10;96.70
43346;DHT22;28937;51.160;4.146;2023-05-16T06:04:04;13.20;96.30
43346;DHT22;28937;51.160;4.146;2023-05-16T06:06:30;13.30;96.30
43346;DHT22;28937;51.160;4.146;2023-05-16T06:08:56;13.30;96.10
43346;DHT22;28937;51.160;4.146;2023-05-16T06:11:22;13.40;96.50
43346;DHT22;28937;51.160;4.146;2023-05-16T06:13:50;13.50;96.10
43346;DHT22;28937;51.160;4.146;2023-05-16T06:16:16;13.60;96.30
43346;DHT22;28937;51.160;4.146;2023-05-16T06:18:41;13.70;96.10
43346;DHT22;28937;51.160;4.146;2023-05-16T06:21:07;13.80;96.10
43346;DHT22;28937;51.160;4.146;2023-05-16T06:23:33;13.90;95.70
43346;DHT22;28937;51.160;4.146;2023-05-16T06:25:58;14.00;95.30
43346;DHT22;28937;51.160;4.146;2023-05-16T06:28:24;14.00;95.00
43346;DHT22;28937;51.160;4.146;2023-05-16T06:30:50;14.10;94.70
43346;DHT22;28937;51.160;4.146;2023-05-16T06:33:17;14.10;94.60
43346;DHT22;28937;51.160;4.146;2023-05-16T06:35:43;14.20;94.70
43346;DHT22;28937;51.160;4.146;2023-05-16T06:38:09;14.20;94.90
43346;DHT22;28937;51.160;4.146;2023-05-16T06:40:35;14.20;94.50
43346;DHT22;28937;51.160;4.146;2023-05-16T06:43:02;14.30;95.00
43346;DHT22;28937;51.160;4.146;2023-05-16T06:45:28;14.30;94.60
43346;DHT22;28937;51.160;4.146;2023-05-16T06:47:54;14.30;94.60
43346;DHT22;28937;51.160;4.146;2023-05-16T06:50:21;14.30;94.00
43346;DHT22;28937;51.160;4.146;2023-05-16T06:52:46;14.40;94.20
43346;DHT22;28937;51.160;4.146;2023-05-16T06:55:12;14.40;94.00
43346;DHT22;28937;51.160;4.146;2023-05-16T06:57:38;14.40;94.00
43346;DHT22;28937;51.160;4.146;2023-05-16T07:00:04;14.40;93.80
43346;DHT22;28937;51.160;4.146;2023-05-16T07:02:30;14.40;93.80
43346;DHT22;28937;51.160;4.146;2023-05-16T07:04:55;14.40;94.00
43346;DHT22;28937;51.160;4.146;2023-05-16T07:07:21;14.50;94.10
43346;DHT22;28937;51.160;4.146;2023-05-16T07:09:46;14.50;94.00
43346;DHT22;28937;51.160;4.146;2023-05-16T07:12:12;14.50;94.00
43346;DHT22;28937;51.160;4.146;2023-05-16T07:14:38;14.60;93.80
43346;DHT22;28937;51.160;4.146;2023-05-16T07:17:04;14.60;93.50
43346;DHT22;28937;51.160;4.146;2023-05-16T07:19:30;14.60;92.90
43346;DHT22;28937;51.160;4.146;2023-05-16T07:21:56;14.80;92.30
43346;DHT22;28937;51.160;4.146;2023-05-16T07:24:22;14.80;92.30
43346;DHT22;28937;51.160;4.146;2023-05-16T07:26:47;14.90;92.10
43346;DHT22;28937;51.160;4.146;2023-05-16T07:29:13;14.90;91.80
43346;DHT22;28937;51.160;4.146;2023-05-16T07:31:39;15.00;91.50
43346;DHT22;28937;51.160;4.146;2023-05-16T07:34:05;15.00;91.50
43346;DHT22;28937;51.160;4.146;2023-05-16T07:36:32;15.10;91.20
43346;DHT22;28937;51.160;4.146;2023-05-16T07:38:58;15.20;91.20
43346;DHT22;28937;51.160;4.146;2023-05-16T07:41:24;15.20;90.90
43346;DHT22;28937;51.160;4.146;2023-05-16T07:43:49;15.30;90.50
43346;DHT22;28937;51.160;4.146;2023-05-16T07:46:15;15.40;90.20
43346;DHT22;28937;51.160;4.146;2023-05-16T07:48:41;15.40;90.60
43346;DHT22;28937;51.160;4.146;2023-05-16T07:51:07;15.40;90.70
43346;DHT22;28937;51.160;4.146;2023-05-16T07:53:32;15.50;90.00
43346;DHT22;28937;51.160;4.146;2023-05-16T07:55:58;15.50;90.20
43346;DHT22;28937;51.160;4.146;2023-05-16T07:58:23;15.50;89.00
43346;DHT22;28937;51.160;4.146;2023-05-16T08:00:49;15.60;89.20
43346;DHT22;28937;51.160;4.146;2023-05-16T08:03:15;15.70;88.40
43346;DHT22;28937;51.160;4.146;2023-05-16T08:05:40;15.70;89.30
43346;DHT22;28937;51.160;4.146;2023-05-16T08:08:06;15.80;88.30
43346;DHT22;28937;51.160;4.146;2023-05-16T08:10:32;15.80;88.60
43346;DHT22;28937;51.160;4.146;2023-05-16T08:12:58;15.80;88.30
43346;DHT22;28937;51.160;4.146;2023-05-16T08:15:25;15.90;87.30
43346;DHT22;28937;51.160;4.146;2023-05-16T08:17:50;15.90;87.70
43346;DHT22;28937;51.160;4.146;2023-05-16T08:20:16;16.00;87.20
43346;DHT22;28937;51.160;4.146;2023-05-16T08:22:42;16.00;86.50
43346;DHT22;28937;51.160;4.146;2023-05-16T08:25:07;16.00;87.40
43346;DHT22;28937;51.160;4.146;2023-05-16T08:27:33;16.10;88.10
43346;DHT22;28937;51.160;4.146;2023-05-16T08:29:59;16.20;87.10
43346;DHT22;28937;51.160;4.146;2023-05-16T08:32:24;16.20;87.70
43346;DHT22;28937;51.160;4.146;2023-05-16T08:34:50;16.20;85.90
43346;DHT22;28937;51.160;4.146;2023-05-16T08:37:15;16.20;87.10
43346;DHT22;28937;51.160;4.146;2023-05-16T08:39:41;16.30;86.90
43346;DHT22;28937;51.160;4.146;2023-05-16T08:42:07;16.30;86.40
43346;DHT22;28937;51.160;4.146;2023-05-16T08:44:33;16.40;85.70
43346;DHT22;28937;51.160;4.146;2023-05-16T08:47:11;16.40;86.10
43346;DHT22;28937;51.160;4.146;2023-05-16T08:49:40;16.50;87.60
43346;DHT22;28937;51.160;4.146;2023-05-16T08:52:09;16.50;86.40
43346;DHT22;28937;51.160;4.146;2023-05-16T08:54:35;16.50;85.80
43346;DHT22;28937;51.160;4.146;2023-05-16T08:57:02;16.50;86.30
43346;DHT22;28937;51.160;4.146;2023-05-16T08:59:28;16.50;85.90
43346;DHT22;28937;51.160;4.146;2023-05-16T09:01:55;16.60;86.10
43346;DHT22;28937;51.160;4.146;2023-05-16T09:04:22;16.70;86.30
43346;DHT22;28937;51.160;4.146;2023-05-16T09:06:49;16.60;89.20
43346;DHT22;28937;51.160;4.146;2023-05-16T09:09:16;16.60;90.30
43346;DHT22;28937;51.160;4.146;2023-05-16T09:11:41;16.70;90.00
43346;DHT22;28937;51.160;4.146;2023-05-16T09:14:07;16.70;90.30
43346;DHT22;28937;51.160;4.146;2023-05-16T09:16:33;16.70;90.20
43346;DHT22;28937;51.160;4.146;2023-05-16T09:19:00;16.70;89.30
43346;DHT22;28937;51.160;4.146;2023-05-16T09:21:31;16.70;89.40
43346;DHT22;28937;51.160;4.146;2023-05-16T09:24:08;16.80;88.40
43346;DHT22;28937;51.160;4.146;2023-05-16T09:26:36;16.80;85.90
43346;DHT22;28937;51.160;4.146;2023-05-16T09:29:12;16.80;85.10
43346;DHT22;28937;51.160;4.146;2023-05-16T09:31:38;16.90;85.90
43346;DHT22;28937;51.160;4.146;2023-05-16T09:34:08;16.90;87.30
43346;DHT22;28937;51.160;4.146;2023-05-16T09:36:35;16.90;87.40
43346;DHT22;28937;51.160;4.146;2023-05-16T09:39:01;16.90;87.70
43346;DHT22;28937;51.160;4.146;2023-05-16T09:41:26;16.90;87.10
43346;DHT22;28937;51.160;4.146;2023-05-16T09:43:52;16.90;87.30
43346;DHT22;28937;51.160;4.146;2023-05-16T09:46:17;17.00;87.80
43346;DHT22;28937;51.160;4.146;2023-05-16T09:48:45;17.00;84.80
43346;DHT22;28937;51.160;4.146;2023-05-16T09:51:11;17.00;85.30
43346;DHT22;28937;51.160;4.146;2023-05-16T09:53:38;17.00;86.60
43346;DHT22;28937;51.160;4.146;2023-05-16T09:56:05;17.00;87.00
43346;DHT22;28937;51.160;4.146;2023-05-16T09:58:33;17.00;86.10
43346;DHT22;28937;51.160;4.146;2023-05-16T10:01:00;17.00;84.90
43346;DHT22;28937;51.160;4.146;2023-05-16T10:03:26;17.10;86.00
43346;DHT22;28937;51.160;4.146;2023-05-16T10:05:52;17.10;84.60
43346;DHT22;28937;51.160;4.146;2023-05-16T10:08:23;17.10;84.70
43346;DHT22;28937;51.160;4.146;2023-05-16T10:10:54;17.10;83.60
43346;DHT22;28937;51.160;4.146;2023-05-16T10:13:38;17.20;84.80
43346;DHT22;28937;51.160;4.146;2023-05-16T10:16:10;17.20;83.90
43346;DHT22;28937;51.160;4.146;2023-05-16T10:18:37;17.20;83.50
43346;DHT22;28937;51.160;4.146;2023-05-16T10:21:06;17.20;82.80
43346;DHT22;28937;51.160;4.146;2023-05-16T10:23:32;17.20;84.70
43346;DHT22;28937;51.160;4.146;2023-05-16T10:26:02;17.20;82.80
43346;DHT22;28937;51.160;4.146;2023-05-16T10:28:28;17.20;83.60
43346;DHT22;28937;51.160;4.146;2023-05-16T10:30:54;17.20;86.10
43346;DHT22;28937;51.160;4.146;2023-05-16T10:33:20;17.20;83.40
43346;DHT22;28937;51.160;4.146;2023-05-16T10:35:46;17.20;84.90
43346;DHT22;28937;51.160;4.146;2023-05-16T10:38:15;17.20;83.60
43346;DHT22;28937;51.160;4.146;2023-05-16T10:40:42;17.30;82.70
43346;DHT22;28937;51.160;4.146;2023-05-16T10:43:08;17.30;81.70
43346;DHT22;28937;51.160;4.146;2023-05-16T10:45:38;17.30;81.60
43346;DHT22;28937;51.160;4.146;2023-05-16T10:48:05;17.30;80.20
43346;DHT22;28937;51.160;4.146;2023-05-16T10:50:37;17.30;80.80
43346;DHT22;28937;51.160;4.146;2023-05-16T10:55:48;17.30;81.20
43346;DHT22;28937;51.160;4.146;2023-05-16T10:58:39;17.40;81.50
43346;DHT22;28937;51.160;4.146;2023-05-16T11:01:18;17.40;81.50
43346;DHT22;28937;51.160;4.146;2023-05-16T11:14:07;17.30;80.40
43346;DHT22;28937;51.160;4.146;2023-05-16T11:16:34;17.30;80.00
43346;DHT22;28937;51.160;4.146;2023-05-16T11:19:07;17.40;81.30
43346;DHT22;28937;51.160;4.146;2023-05-16T11:24:33;17.40;84.10
43346;DHT22;28937;51.160;4.146;2023-05-16T11:27:00;17.40;85.00
43346;DHT22;28937;51.160;4.146;2023-05-16T11:29:31;17.40;80.20
43346;DHT22;28937;51.160;4.146;2023-05-16T11:31:59;17.40;82.20
43346;DHT22;28937;51.160;4.146;2023-05-16T11:34:25;17.40;82.80
43346;DHT22;28937;51.160;4.146;2023-05-16T11:36:51;17.40;83.90
43346;DHT22;28937;51.160;4.146;2023-05-16T11:39:18;17.40;81.30
43346;DHT22;28937;51.160;4.146;2023-05-16T11:41:44;17.40;79.70
43346;DHT22;28937;51.160;4.146;2023-05-16T11:44:11;17.40;80.50
43346;DHT22;28937;51.160;4.146;2023-05-16T11:46:38;17.40;81.30
43346;DHT22;28937;51.160;4.146;2023-05-16T11:49:06;17.40;82.10
43346;DHT22;28937;51.160;4.146;2023-05-16T11:51:34;17.40;82.60
43346;DHT22;28937;51.160;4.146;2023-05-16T11:54:01;17.40;83.10
43346;DHT22;28937;51.160;4.146;2023-05-16T11:56:29;17.40;82.30
43346;DHT22;28937;51.160;4.146;2023-05-16T11:58:58;17.40;81.20
43346;DHT22;28937;51.160;4.146;2023-05-16T12:01:24;17.50;82.30
43346;DHT22;28937;51.160;4.146;2023-05-16T12:03:54;17.50;81.70
43346;DHT22;28937;51.160;4.146;2023-05-16T12:06:21;17.50;77.70
43346;DHT22;28937;51.160;4.146;2023-05-16T12:08:50;17.50;76.00
43346;DHT22;28937;51.160;4.146;2023-05-16T12:11:16;17.40;80.00
43346;DHT22;28937;51.160;4.146;2023-05-16T12:13:42;17.50;78.60
43346;DHT22;28937;51.160;4.146;2023-05-16T12:16:07;17.50;79.10
43346;DHT22;28937;51.160;4.146;2023-05-16T12:18:33;17.50;78.70
43346;DHT22;28937;51.160;4.146;2023-05-16T12:20:59;17.50;79.70
43346;DHT22;28937;51.160;4.146;2023-05-16T12:23:25;17.50;78.90
43346;DHT22;28937;51.160;4.146;2023-05-16T12:25:52;17.50;78.80
43346;DHT22;28937;51.160;4.146;2023-05-16T12:28:19;17.50;77.70
43346;DHT22;28937;51.160;4.146;2023-05-16T12:30:45;17.50;76.20
43346;DHT22;28937;51.160;4.146;2023-05-16T12:33:13;17.60;77.50
43346;DHT22;28937;51.160;4.146;2023-05-16T12:35:44;17.50;78.00
43346;DHT22;28937;51.160;4.146;2023-05-16T12:38:12;17.50;76.60
43346;DHT22;28937;51.160;4.146;2023-05-16T12:40:39;17.50;72.60
43346;DHT22;28937;51.160;4.146;2023-05-16T12:43:16;17.50;76.40
43346;DHT22;28937;51.160;4.146;2023-05-16T12:45:42;17.50;75.10
43346;DHT22;28937;51.160;4.146;2023-05-16T12:48:13;17.40;76.20
43346;DHT22;28937;51.160;4.146;2023-05-16T12:50:40;17.40;80.20
43346;DHT22;28937;51.160;4.146;2023-05-16T12:53:11;17.50;77.70
43346;DHT22;28937;51.160;4.146;2023-05-16T12:55:37;17.50;80.10
43346;DHT22;28937;51.160;4.146;2023-05-16T12:58:02;17.50;78.00
43346;DHT22;28937;51.160;4.146;2023-05-16T13:00:28;17.50;78.00
43346;DHT22;28937;51.160;4.146;2023-05-16T13:02:54;17.50;79.90
43346;DHT22;28937;51.160;4.146;2023-05-16T13:05:20;17.50;80.10
43346;DHT22;28937;51.160;4.146;2023-05-16T13:07:48;17.50;79.90
43346;DHT22;28937;51.160;4.146;2023-05-16T13:10:16;17.60;79.60
43346;DHT22;28937;51.160;4.146;2023-05-16T13:12:42;17.50;80.00
43346;DHT22;28937;51.160;4.146;2023-05-16T13:15:09;17.50;80.00
43346;DHT22;28937;51.160;4.146;2023-05-16T13:17:37;17.60;80.10
43346;DHT22;28937;51.160;4.146;2023-05-16T13:20:03;17.60;79.60
43346;DHT22;28937;51.160;4.146;2023-05-16T13:22:35;17.50;80.00
43346;DHT22;28937;51.160;4.146;2023-05-16T13:25:01;17.50;80.50
43346;DHT22;28937;51.160;4.146;2023-05-16T13:27:29;17.50;80.00
43346;DHT22;28937;51.160;4.146;2023-05-16T13:29:55;17.50;79.40
43346;DHT22;28937;51.160;4.146;2023-05-16T13:32:20;17.50;79.10
43346;DHT22;28937;51.160;4.146;2023-05-16T13:34:46;17.50;79.90
43346;DHT22;28937;51.160;4.146;2023-05-16T13:37:11;17.50;80.40
43346;DHT22;28937;51.160;4.146;2023-05-16T13:39:37;17.50;81.50
43346;DHT22;28937;51.160;4.146;2023-05-16T13:42:03;17.60;81.00
43346;DHT22;28937;51.160;4.146;2023-05-16T13:44:29;17.50;81.70
43346;DHT22;28937;51.160;4.146;2023-05-16T13:46:55;17.60;80.30
43346;DHT22;28937;51.160;4.146;2023-05-16T13:49:21;17.60;80.70
43346;DHT22;28937;51.160;4.146;2023-05-16T13:51:48;17.60;78.30
43346;DHT22;28937;51.160;4.146;2023-05-16T13:54:13;17.40;79.50
43346;DHT22;28937;51.160;4.146;2023-05-16T13:56:39;17.50;81.20
43346;DHT22;28937;51.160;4.146;2023-05-16T13:59:05;17.50;80.00
43346;DHT22;28937;51.160;4.146;2023-05-16T14:01:30;17.50;79.40
43346;DHT22;28937;51.160;4.146;2023-05-16T14:03:56;17.50;80.00
43346;DHT22;28937;51.160;4.146;2023-05-16T14:06:22;17.50;78.60
43346;DHT22;28937;51.160;4.146;2023-05-16T14:08:47;17.50;79.20
43346;DHT22;28937;51.160;4.146;2023-05-16T14:11:13;17.50;79.00
43346;DHT22;28937;51.160;4.146;2023-05-16T14:13:39;17.50;78.50
43346;DHT22;28937;51.160;4.146;2023-05-16T14:16:07;17.50;79.40
43346;DHT22;28937;51.160;4.146;2023-05-16T14:18:33;17.50;78.90
43346;DHT22;28937;51.160;4.146;2023-05-16T14:20:59;17.50;78.10
43346;DHT22;28937;51.160;4.146;2023-05-16T14:23:24;17.50;78.60
43346;DHT22;28937;51.160;4.146;2023-05-16T14:25:50;17.50;78.90
43346;DHT22;28937;51.160;4.146;2023-05-16T14:28:16;17.50;78.20
43346;DHT22;28937;51.160;4.146;2023-05-16T14:30:41;17.50;77.90
43346;DHT22;28937;51.160;4.146;2023-05-16T14:33:07;17.50;78.20
43346;DHT22;28937;51.160;4.146;2023-05-16T14:35:33;17.50;78.50
43346;DHT22;28937;51.160;4.146;2023-05-16T14:37:58;17.50;78.60
43346;DHT22;28937;51.160;4.146;2023-05-16T14:40:24;17.50;79.90
43346;DHT22;28937;51.160;4.146;2023-05-16T14:42:49;17.60;80.80
43346;DHT22;28937;51.160;4.146;2023-05-16T14:45:15;17.60;79.50
43346;DHT22;28937;51.160;4.146;2023-05-16T14:47:41;17.60;78.10
43346;DHT22;28937;51.160;4.146;2023-05-16T14:50:08;17.60;81.60
43346;DHT22;28937;51.160;4.146;2023-05-16T14:52:34;17.60;83.40
43346;DHT22;28937;51.160;4.146;2023-05-16T14:54:59;17.60;80.90
43346;DHT22;28937;51.160;4.146;2023-05-16T14:57:25;17.60;80.60
43346;DHT22;28937;51.160;4.146;2023-05-16T14:59:51;17.60;81.50
43346;DHT22;28937;51.160;4.146;2023-05-16T15:02:17;17.60;80.10
43346;DHT22;28937;51.160;4.146;2023-05-16T15:04:43;17.60;83.40
43346;DHT22;28937;51.160;4.146;2023-05-16T15:07:09;17.70;83.60
43346;DHT22;28937;51.160;4.146;2023-05-16T15:09:35;17.60;80.80
43346;DHT22;28937;51.160;4.146;2023-05-16T15:12:00;17.70;80.40
43346;DHT22;28937;51.160;4.146;2023-05-16T15:14:26;17.70;81.90
43346;DHT22;28937;51.160;4.146;2023-05-16T15:16:52;17.70;77.60
43346;DHT22;28937;51.160;4.146;2023-05-16T15:19:17;17.70;78.10
43346;DHT22;28937;51.160;4.146;2023-05-16T15:21:43;17.70;80.20
43346;DHT22;28937;51.160;4.146;2023-05-16T15:24:09;17.70;78.40
43346;DHT22;28937;51.160;4.146;2023-05-16T15:26:34;17.70;79.70
43346;DHT22;28937;51.160;4.146;2023-05-16T15:29:00;17.70;78.90
43346;DHT22;28937;51.160;4.146;2023-05-16T15:31:26;17.70;79.50
43346;DHT22;28937;51.160;4.146;2023-05-16T15:33:52;17.70;80.10
43346;DHT22;28937;51.160;4.146;2023-05-16T15:36:17;17.70;80.50
43346;DHT22;28937;51.160;4.146;2023-05-16T15:38:43;17.70;84.60
43346;DHT22;28937;51.160;4.146;2023-05-16T15:41:10;17.70;84.30
43346;DHT22;28937;51.160;4.146;2023-05-16T15:43:36;17.70;80.60
43346;DHT22;28937;51.160;4.146;2023-05-16T15:46:02;17.70;82.80
43346;DHT22;28937;51.160;4.146;2023-05-16T15:48:27;17.70;78.60
43346;DHT22;28937;51.160;4.146;2023-05-16T15:50:53;17.70;82.30
43346;DHT22;28937;51.160;4.146;2023-05-16T15:53:19;17.70;82.30